createdAt,value
2023-04-15T00:01:02.892Z,70.23
2023-04-15T00:03:29.965Z,70.06
2023-04-15T00:05:58.565Z,70.32
2023-04-15T00:08:25.664Z,70.10
2023-04-15T00:10:52.908Z,70.15
2023-04-15T00:13:19.533Z,69.97
2023-04-15T00:15:46.470Z,70.20
2023-04-15T00:18:13.257Z,70.03
2023-04-15T00:20:40.070Z,70.23
2023-04-15T00:23:06.710Z,70.21
2023-04-15T00:25:33.324Z,70.21
2023-04-15T00:27:59.999Z,70.38
2023-04-15T00:30:26.742Z,70.15
2023-04-15T00:32:53.629Z,70.38
2023-04-15T00:35:20.742Z,70.40
2023-04-15T00:37:47.484Z,70.32
2023-04-15T00:40:17.845Z,70.56
2023-04-15T00:42:45.663Z,70.94
2023-04-15T00:45:13.061Z,70.60
2023-04-15T00:47:43.078Z,70.41
2023-04-15T00:50:11.103Z,70.40
2023-04-15T00:52:37.800Z,70.73
2023-04-15T00:55:05.455Z,70.58
2023-04-15T00:57:32.350Z,70.74
2023-04-15T00:59:59.889Z,70.77
2023-04-15T01:02:27.479Z,71.01
2023-04-15T01:04:54.347Z,70.74
2023-04-15T01:07:21.000Z,71.10
2023-04-15T01:09:48.166Z,70.72
2023-04-15T01:12:17.049Z,70.85
2023-04-15T01:14:43.913Z,70.88
2023-04-15T01:17:10.538Z,70.86
2023-04-15T01:19:37.578Z,70.82
2023-04-15T01:22:05.405Z,71.13
2023-04-15T01:24:36.049Z,70.80
2023-04-15T01:27:03.466Z,71.04
2023-04-15T01:29:32.664Z,70.99
2023-04-15T01:31:59.447Z,71.15
2023-04-15T01:34:26.399Z,71.12
2023-04-15T01:36:53.016Z,71.21
2023-04-15T01:39:19.656Z,71.21
2023-04-15T01:41:46.289Z,71.18
2023-04-15T01:44:13.072Z,71.26
2023-04-15T01:46:39.740Z,71.22
2023-04-15T01:49:06.591Z,71.20
2023-04-15T01:51:33.264Z,71.22
2023-04-15T01:54:00.019Z,71.32
2023-04-15T01:56:26.896Z,71.14
2023-04-15T01:58:53.608Z,71.21
2023-04-15T02:01:20.832Z,71.42
2023-04-15T02:03:48.121Z,71.19
2023-04-15T02:06:15.072Z,71.31
2023-04-15T02:08:41.736Z,71.46
2023-04-15T02:11:08.533Z,71.22
2023-04-15T02:13:35.166Z,71.48
2023-04-15T02:16:03.470Z,71.25
2023-04-15T02:18:30.630Z,71.37
2023-04-15T02:20:58.673Z,71.34
2023-04-15T02:23:25.870Z,71.34
2023-04-15T02:25:53.380Z,71.16
2023-04-15T02:28:20.820Z,71.31
2023-04-15T02:30:52.771Z,71.46
2023-04-15T02:33:21.823Z,71.46
2023-04-15T02:35:48.820Z,71.62
2023-04-15T02:38:17.203Z,71.67
2023-04-15T02:40:44.137Z,71.44
2023-04-15T02:43:10.800Z,71.59
2023-04-15T02:45:37.446Z,71.53
2023-04-15T02:48:06.620Z,71.52
2023-04-15T02:50:33.646Z,71.28
2023-04-15T02:53:01.707Z,71.65
2023-04-15T02:55:29.172Z,71.60
2023-04-15T02:57:56.055Z,71.83
2023-04-15T03:00:25.396Z,71.84
2023-04-15T03:02:56.626Z,71.64
2023-04-15T03:05:26.557Z,71.75
2023-04-15T03:07:53.798Z,71.74
2023-04-15T03:10:21.440Z,71.83
2023-04-15T03:12:48.305Z,71.86
2023-04-15T03:15:15.703Z,71.74
2023-04-15T03:17:42.439Z,71.84
2023-04-15T03:20:09.687Z,71.76
2023-04-15T03:22:36.343Z,71.72
2023-04-15T03:25:03.043Z,71.84
2023-04-15T03:27:29.801Z,71.78
2023-04-15T03:29:56.933Z,72.03
2023-04-15T03:32:23.662Z,71.74
2023-04-15T03:34:50.413Z,71.91
2023-04-15T03:37:17.112Z,71.60
2023-04-15T03:39:43.719Z,71.73
2023-04-15T03:42:10.319Z,71.80
2023-04-15T03:44:37.247Z,71.82
2023-04-15T03:47:03.924Z,71.78
2023-04-15T03:49:30.580Z,71.90
2023-04-15T03:51:57.464Z,71.73
2023-04-15T03:54:24.142Z,71.95
2023-04-15T03:56:52.025Z,71.79
2023-04-15T03:59:18.649Z,71.73
2023-04-15T04:01:45.347Z,71.88
2023-04-15T04:04:12.445Z,71.69
2023-04-15T04:06:39.610Z,71.69
2023-04-15T04:09:06.459Z,71.53
2023-04-15T04:11:33.216Z,71.83
2023-04-15T04:13:59.819Z,71.70
2023-04-15T04:16:26.657Z,71.93
2023-04-15T04:18:53.466Z,71.98
2023-04-15T04:21:21.133Z,71.48
2023-04-15T04:23:47.783Z,71.71
2023-04-15T04:26:14.442Z,71.91
2023-04-15T04:28:41.062Z,71.99
2023-04-15T04:31:10.882Z,71.76
2023-04-15T04:33:37.871Z,71.75
2023-04-15T04:36:04.872Z,71.86
2023-04-15T04:38:31.527Z,71.87
2023-04-15T04:40:58.180Z,72.00
2023-04-15T04:43:24.962Z,71.49
2023-04-15T04:45:52.175Z,71.66
2023-04-15T04:48:18.920Z,71.52
2023-04-15T04:50:47.082Z,71.43
2023-04-15T04:53:13.968Z,71.51
2023-04-15T04:55:40.591Z,71.52
2023-04-15T04:58:07.211Z,71.50
2023-04-15T05:00:34.192Z,71.42
2023-04-15T05:03:01.211Z,71.49
2023-04-15T05:05:28.016Z,71.60
2023-04-15T05:07:54.736Z,71.42
2023-04-15T05:10:21.728Z,71.46
2023-04-15T05:12:48.339Z,71.48
2023-04-15T05:15:15.381Z,70.86
2023-04-15T05:17:42.035Z,71.18
2023-04-15T05:20:09.722Z,71.31
2023-04-15T05:22:37.191Z,70.92
2023-04-15T05:25:04.101Z,71.29
2023-04-15T05:27:30.877Z,70.83
2023-04-15T05:29:57.507Z,70.84
2023-04-15T05:32:24.204Z,70.88
2023-04-15T05:34:51.066Z,71.17
2023-04-15T05:37:17.941Z,71.26
2023-04-15T05:39:44.547Z,70.71
2023-04-15T05:42:11.495Z,70.88
2023-04-15T05:44:38.448Z,70.80
2023-04-15T05:47:05.960Z,70.93
2023-04-15T05:49:32.701Z,70.46
2023-04-15T05:51:59.646Z,70.55
2023-04-15T05:54:27.887Z,70.94
2023-04-15T05:56:54.811Z,70.92
2023-04-15T05:59:21.475Z,70.63
2023-04-15T06:01:48.266Z,70.95
2023-04-15T06:04:15.517Z,70.23
2023-04-15T06:06:42.174Z,70.73
2023-04-15T06:09:08.773Z,70.07
2023-04-15T06:11:35.635Z,69.87
2023-04-15T06:14:02.275Z,70.05
2023-04-15T06:16:29.099Z,69.97
2023-04-15T06:18:55.803Z,70.27
2023-04-15T06:21:22.452Z,69.93
2023-04-15T06:23:49.107Z,70.05
2023-04-15T06:26:15.727Z,69.86
2023-04-15T06:28:42.341Z,69.94
2023-04-15T06:31:09.239Z,69.21
2023-04-15T06:33:35.988Z,69.29
2023-04-15T06:36:02.655Z,69.33
2023-04-15T06:38:29.280Z,69.22
2023-04-15T06:40:55.948Z,69.08
2023-04-15T06:43:22.630Z,69.37
2023-04-15T06:45:49.331Z,68.65
2023-04-15T06:48:16.329Z,69.24
2023-04-15T06:50:43.199Z,69.25
2023-04-15T06:53:09.879Z,68.64
2023-04-15T06:55:36.548Z,68.64
2023-04-15T06:58:03.209Z,68.51
2023-04-15T07:00:30.598Z,68.40
2023-04-15T07:02:57.335Z,68.48
2023-04-15T07:05:23.963Z,68.24
2023-04-15T07:07:50.627Z,67.90
2023-04-15T07:10:17.442Z,68.35
2023-04-15T07:12:44.067Z,67.69
2023-04-15T07:15:11.139Z,67.69
2023-04-15T07:17:38.589Z,67.53
2023-04-15T07:20:05.672Z,67.65
2023-04-15T07:22:32.333Z,67.55
2023-04-15T07:24:58.927Z,67.37
2023-04-15T07:27:25.964Z,67.32
2023-04-15T07:29:53.202Z,67.39
2023-04-15T07:32:20.090Z,66.92
2023-04-15T07:34:47.037Z,66.88
2023-04-15T07:37:13.881Z,66.99
2023-04-15T07:39:40.648Z,66.41
2023-04-15T07:42:07.443Z,66.45
2023-04-15T07:44:34.104Z,66.51
2023-04-15T07:47:03.185Z,66.52
2023-04-15T07:49:29.863Z,66.24
2023-04-15T07:51:57.701Z,66.11
2023-04-15T07:54:24.465Z,66.22
2023-04-15T07:56:51.434Z,66.03
2023-04-15T07:59:18.235Z,65.78
2023-04-15T08:01:45.130Z,65.88
2023-04-15T08:04:11.966Z,65.47
2023-04-15T08:06:39.970Z,65.02
2023-04-15T08:09:08.257Z,65.08
2023-04-15T08:11:34.979Z,65.07
2023-04-15T08:14:01.973Z,65.35
2023-04-15T08:16:28.755Z,65.58
2023-04-15T08:18:56.578Z,67.04
2023-04-15T08:21:23.955Z,66.54
2023-04-15T08:23:52.162Z,66.00
2023-04-15T08:26:20.120Z,66.61
2023-04-15T08:28:47.392Z,66.60
2023-04-15T08:31:19.170Z,66.58
2023-04-15T08:33:46.367Z,66.07
2023-04-15T08:36:13.977Z,65.70
2023-04-15T08:38:41.112Z,65.27
2023-04-15T08:41:18.401Z,64.44
2023-04-15T08:43:58.409Z,63.99
2023-04-15T08:46:25.616Z,63.41
2023-04-15T08:48:54.020Z,62.28
2023-04-15T08:51:21.473Z,61.11
2023-04-15T08:53:49.846Z,60.51
2023-04-15T08:56:16.892Z,59.06
2023-04-15T08:58:47.187Z,58.30
2023-04-15T09:01:14.095Z,56.50
2023-04-15T09:03:41.916Z,55.72
2023-04-15T09:06:08.894Z,55.64
2023-04-15T09:08:35.971Z,55.35
2023-04-15T09:11:03.716Z,55.15
2023-04-15T09:13:30.583Z,54.91
2023-04-15T09:16:00.023Z,53.77
2023-04-15T09:18:31.432Z,53.23
2023-04-15T09:21:06.604Z,52.36
2023-04-15T09:23:34.132Z,51.79
2023-04-15T09:26:01.916Z,50.89
2023-04-15T09:28:28.961Z,50.28
2023-04-15T09:30:57.149Z,50.15
2023-04-15T09:33:24.375Z,49.53
2023-04-15T09:36:02.709Z,48.92
2023-04-15T09:38:29.400Z,48.63
2023-04-15T09:40:56.118Z,48.76
2023-04-15T09:43:23.331Z,48.37
2023-04-15T09:45:52.425Z,48.52
2023-04-15T09:48:21.546Z,48.59
2023-04-15T09:50:49.670Z,48.66
2023-04-15T09:53:20.605Z,48.67
2023-04-15T09:55:51.327Z,48.87
2023-04-15T09:58:20.291Z,49.17
2023-04-15T10:00:51.341Z,48.91
2023-04-15T10:03:22.728Z,48.72
2023-04-15T10:05:51.553Z,48.06
2023-04-15T10:08:23.928Z,48.38
2023-04-15T10:10:52.184Z,48.48
2023-04-15T10:13:32.874Z,48.66
2023-04-15T10:16:02.606Z,48.77
2023-04-15T10:18:30.687Z,48.45
2023-04-15T10:20:57.477Z,48.61
2023-04-15T10:23:25.740Z,48.43
2023-04-15T10:25:54.583Z,47.97
2023-04-15T10:28:25.025Z,48.21
2023-04-15T10:30:53.656Z,47.80
2023-04-15T10:33:23.665Z,47.94
2023-04-15T10:35:51.964Z,47.96
2023-04-15T10:38:36.774Z,47.98
2023-04-15T10:41:23.761Z,47.84
2023-04-15T10:43:55.251Z,47.64
2023-04-15T10:46:37.476Z,48.10
2023-04-15T10:49:15.172Z,47.81
2023-04-15T10:51:44.451Z,47.70
2023-04-15T10:54:27.222Z,47.66
2023-04-15T10:57:08.857Z,47.82
2023-04-15T10:59:59.655Z,47.47
2023-04-15T11:03:00.640Z,47.52
2023-04-15T11:05:39.475Z,47.44
2023-04-15T11:08:06.093Z,47.32
2023-04-15T11:10:32.639Z,47.01
2023-04-15T11:13:11.802Z,47.22
2023-04-15T11:15:46.706Z,47.20
2023-04-15T11:18:22.313Z,46.61
2023-04-15T11:20:57.627Z,45.98
2023-04-15T11:23:35.786Z,46.00
2023-04-15T11:26:06.914Z,46.11
2023-04-15T11:28:33.804Z,46.20
2023-04-15T11:31:07.345Z,45.71
2023-04-15T11:33:34.258Z,45.91
2023-04-15T11:36:01.531Z,46.05
2023-04-15T11:38:28.176Z,45.51
2023-04-15T11:40:54.967Z,45.08
2023-04-15T11:43:23.579Z,44.62
2023-04-15T11:45:51.932Z,44.77
2023-04-15T11:48:19.359Z,44.79
2023-04-15T11:50:46.102Z,44.67
2023-04-15T11:53:14.163Z,44.45
2023-04-15T11:55:44.840Z,44.59
2023-04-15T11:58:23.629Z,44.30
2023-04-15T12:00:52.567Z,44.32
2023-04-15T12:03:28.720Z,44.25
2023-04-15T12:06:22.525Z,44.11
2023-04-15T12:09:30.390Z,43.88
2023-04-15T12:11:58.679Z,43.94
2023-04-15T12:14:33.240Z,44.03
2023-04-15T12:17:04.954Z,44.11
2023-04-15T12:19:40.098Z,44.16
2023-04-15T12:22:10.946Z,44.51
2023-04-15T12:24:39.055Z,44.30
2023-04-15T12:27:13.144Z,44.29
2023-04-15T12:29:41.787Z,44.41
2023-04-15T12:32:13.569Z,43.79
2023-04-15T12:34:42.559Z,43.65
2023-04-15T12:37:11.414Z,44.26
2023-04-15T12:39:43.932Z,44.34
2023-04-15T12:42:11.762Z,44.05
2023-04-15T12:44:39.386Z,44.43
2023-04-15T12:47:07.876Z,44.39
2023-04-15T12:49:34.714Z,44.09
2023-04-15T12:52:02.823Z,44.02
2023-04-15T12:54:33.092Z,43.51
2023-04-15T12:57:00.052Z,43.37
2023-04-15T12:59:26.758Z,43.25
2023-04-15T13:01:54.442Z,43.08
2023-04-15T13:04:21.909Z,43.17
2023-04-15T13:06:48.815Z,42.79
2023-04-15T13:09:15.835Z,42.99
2023-04-15T13:11:43.373Z,42.67
2023-04-15T13:14:11.778Z,42.50
2023-04-15T13:16:38.894Z,42.25
2023-04-15T13:19:05.608Z,42.30
2023-04-15T13:21:35.593Z,42.48
2023-04-15T13:24:03.207Z,42.47
2023-04-15T13:26:30.035Z,42.50
2023-04-15T13:28:56.743Z,42.81
2023-04-15T13:31:23.429Z,42.86
2023-04-15T13:33:50.312Z,42.93
2023-04-15T13:36:17.020Z,43.04
2023-04-15T13:38:43.628Z,42.75
2023-04-15T13:41:10.518Z,43.19
2023-04-15T13:43:37.668Z,42.97
2023-04-15T13:46:04.508Z,42.94
2023-04-15T13:48:31.615Z,43.05
2023-04-15T13:50:58.255Z,43.06
2023-04-15T13:53:33.855Z,42.71
2023-04-15T13:56:06.597Z,42.96
2023-04-15T13:58:33.259Z,43.24
2023-04-15T14:00:59.932Z,43.05
2023-04-15T14:03:26.661Z,43.04
2023-04-15T14:05:56.159Z,43.21
2023-04-15T14:08:24.774Z,43.24
2023-04-15T14:10:51.448Z,43.06
2023-04-15T14:13:19.655Z,42.99
2023-04-15T14:15:46.931Z,42.78
2023-04-15T14:18:13.665Z,42.56
2023-04-15T14:20:40.609Z,42.79
2023-04-15T14:23:07.325Z,42.62
2023-04-15T14:25:34.361Z,42.88
2023-04-15T14:28:02.043Z,43.01
2023-04-15T14:30:28.780Z,42.83
2023-04-15T14:32:55.775Z,42.84
2023-04-15T14:35:24.627Z,42.47
2023-04-15T14:37:51.326Z,42.30
2023-04-15T14:40:18.008Z,41.89
2023-04-15T14:42:44.696Z,41.64
2023-04-15T14:45:11.624Z,41.85
2023-04-15T14:47:38.339Z,41.66
2023-04-15T14:50:05.484Z,41.65
2023-04-15T14:52:38.863Z,41.70
2023-04-15T14:55:07.221Z,41.41
2023-04-15T14:57:33.885Z,41.00
2023-04-15T15:00:00.590Z,41.06
2023-04-15T15:02:38.502Z,40.69
2023-04-15T15:05:06.548Z,40.42
2023-04-15T15:07:33.387Z,40.26
2023-04-15T15:10:00.034Z,40.32
2023-04-15T15:12:26.728Z,40.41
2023-04-15T15:14:55.113Z,40.00
2023-04-15T15:17:22.228Z,39.87
2023-04-15T15:19:49.112Z,40.17
2023-04-15T15:22:15.781Z,40.20
2023-04-15T15:24:42.485Z,40.42
2023-04-15T15:27:10.308Z,40.40
2023-04-15T15:29:38.094Z,40.42
2023-04-15T15:32:04.937Z,40.56
2023-04-15T15:34:31.609Z,40.57
2023-04-15T15:36:58.291Z,40.60
2023-04-15T15:39:24.919Z,40.41
2023-04-15T15:41:51.542Z,40.60
2023-04-15T15:44:18.205Z,40.60
2023-04-15T15:46:45.084Z,40.40
2023-04-15T15:49:11.865Z,40.52
2023-04-15T15:51:38.592Z,40.47
2023-04-15T15:54:05.312Z,40.11
2023-04-15T15:56:31.948Z,40.22
2023-04-15T15:58:58.637Z,40.51
2023-04-15T16:01:25.543Z,40.53
2023-04-15T16:03:52.416Z,40.21
2023-04-15T16:06:19.223Z,40.46
2023-04-15T16:08:45.836Z,40.01
2023-04-15T16:11:12.484Z,39.84
2023-04-15T16:13:39.161Z,40.08
2023-04-15T16:16:06.212Z,40.19
2023-04-15T16:18:35.195Z,39.86
2023-04-15T16:21:02.157Z,40.13
2023-04-15T16:23:28.884Z,40.09
2023-04-15T16:25:55.664Z,39.94
2023-04-15T16:28:26.821Z,40.11
2023-04-15T16:30:54.976Z,40.33
2023-04-15T16:33:21.740Z,40.29
2023-04-15T16:35:48.473Z,40.11
2023-04-15T16:38:15.657Z,40.32
2023-04-15T16:40:42.559Z,40.17
2023-04-15T16:43:11.324Z,40.00
2023-04-15T16:45:38.752Z,40.01
2023-04-15T16:48:05.870Z,40.30
2023-04-15T16:50:32.665Z,40.75
2023-04-15T16:52:59.363Z,40.58
2023-04-15T16:55:26.141Z,41.07
2023-04-15T16:58:02.305Z,41.22
2023-04-15T17:00:31.195Z,40.64
2023-04-15T17:02:58.325Z,41.22
2023-04-15T17:05:25.237Z,41.42
2023-04-15T17:07:52.042Z,41.40
2023-04-15T17:10:18.937Z,40.84
2023-04-15T17:12:45.625Z,41.78
2023-04-15T17:15:12.282Z,41.77
2023-04-15T17:17:39.179Z,41.83
2023-04-15T17:20:06.364Z,41.78
2023-04-15T17:22:33.644Z,41.85
2023-04-15T17:25:00.445Z,42.05
2023-04-15T17:27:28.870Z,42.28
2023-04-15T17:29:55.603Z,42.57
2023-04-15T17:32:22.899Z,42.21
2023-04-15T17:34:51.363Z,42.57
2023-04-15T17:37:18.614Z,43.28
2023-04-15T17:39:45.542Z,42.68
2023-04-15T17:42:13.001Z,42.98
2023-04-15T17:44:39.911Z,43.64
2023-04-15T17:47:06.880Z,43.77
2023-04-15T17:49:34.307Z,43.92
2023-04-15T17:52:01.321Z,43.61
2023-04-15T17:54:28.314Z,43.88
2023-04-15T17:56:56.668Z,44.35
2023-04-15T17:59:23.705Z,44.41
2023-04-15T18:01:50.620Z,44.69
2023-04-15T18:04:17.482Z,44.24
2023-04-15T18:06:44.294Z,44.05
2023-04-15T18:09:11.370Z,44.84
2023-04-15T18:11:40.084Z,44.51
2023-04-15T18:14:07.219Z,44.08
2023-04-15T18:16:34.255Z,44.66
2023-04-15T18:19:01.251Z,44.12
2023-04-15T18:21:28.015Z,44.22
2023-04-15T18:23:54.667Z,44.48
2023-04-15T18:26:22.016Z,44.57
2023-04-15T18:28:48.683Z,44.39
2023-04-15T18:31:15.693Z,44.43
2023-04-15T18:33:42.447Z,45.04
2023-04-15T18:36:10.330Z,44.85
2023-04-15T18:38:37.061Z,44.97
2023-04-15T18:41:05.430Z,44.87
2023-04-15T18:43:32.534Z,44.52
2023-04-15T18:46:00.188Z,45.14
2023-04-15T18:48:27.281Z,45.15
2023-04-15T18:50:54.277Z,45.06
2023-04-15T18:53:21.790Z,45.03
2023-04-15T18:55:48.469Z,44.97
2023-04-15T18:58:15.612Z,45.18
2023-04-15T19:00:43.863Z,44.97
2023-04-15T19:03:11.704Z,45.38
2023-04-15T19:05:38.481Z,45.47
2023-04-15T19:08:05.463Z,45.70
2023-04-15T19:10:32.129Z,45.27
2023-04-15T19:12:58.746Z,45.11
2023-04-15T19:15:25.490Z,45.52
2023-04-15T19:17:52.152Z,45.25
2023-04-15T19:20:18.812Z,45.58
2023-04-15T19:22:46.175Z,45.43
2023-04-15T19:25:12.869Z,45.56
2023-04-15T19:27:39.737Z,45.80
2023-04-15T19:30:07.996Z,45.73
2023-04-15T19:32:36.066Z,45.66
2023-04-15T19:35:03.064Z,45.76
2023-04-15T19:37:30.167Z,46.26
2023-04-15T19:39:56.909Z,46.16
2023-04-15T19:42:23.555Z,46.10
2023-04-15T19:44:50.187Z,46.24
2023-04-15T19:47:17.012Z,45.91
2023-04-15T19:49:43.722Z,45.98
2023-04-15T19:52:10.366Z,46.70
2023-04-15T19:54:37.161Z,46.81
2023-04-15T19:57:03.878Z,46.47
2023-04-15T19:59:30.509Z,46.43
2023-04-15T20:01:57.376Z,46.77
2023-04-15T20:04:24.133Z,46.63
2023-04-15T20:06:50.996Z,46.72
2023-04-15T20:09:17.639Z,46.81
2023-04-15T20:12:46.928Z,46.46
2023-04-15T20:14:31.030Z,46.33
2023-04-15T20:16:57.671Z,46.74
2023-04-15T20:19:24.360Z,46.78
2023-04-15T20:21:52.490Z,47.00
2023-04-15T20:24:20.319Z,46.55
2023-04-15T20:26:47.391Z,46.99
2023-04-15T20:29:14.147Z,47.05
2023-04-15T20:31:40.866Z,47.27
2023-04-15T20:34:08.850Z,46.81
2023-04-15T20:36:37.413Z,47.14
2023-04-15T20:39:04.289Z,46.79
2023-04-15T20:41:31.160Z,47.09
2023-04-15T20:43:57.915Z,47.22
2023-04-15T20:46:25.942Z,46.84
2023-04-15T20:48:54.161Z,46.88
2023-04-15T20:51:20.897Z,46.79
2023-04-15T20:53:47.496Z,47.13
2023-04-15T20:56:14.098Z,47.23
2023-04-15T20:58:41.274Z,47.73
2023-04-15T21:01:07.989Z,47.37
2023-04-15T21:03:37.505Z,47.72
2023-04-15T21:06:04.282Z,47.38
2023-04-15T21:08:31.642Z,47.09
2023-04-15T21:10:58.527Z,47.67
2023-04-15T21:13:25.231Z,47.57
2023-04-15T21:15:54.246Z,47.83
2023-04-15T21:18:21.845Z,47.54
2023-04-15T21:21:01.557Z,47.65
2023-04-15T21:23:29.877Z,47.72
2023-04-15T21:25:57.337Z,47.41
2023-04-15T21:28:24.127Z,47.73
2023-04-15T21:30:50.845Z,48.04
2023-04-15T21:33:20.313Z,48.26
2023-04-15T21:35:46.993Z,47.63
2023-04-15T21:38:13.749Z,48.38
2023-04-15T21:40:40.865Z,48.17
2023-04-15T21:43:08.212Z,48.58
2023-04-15T21:45:35.613Z,48.16
2023-04-15T21:48:08.024Z,48.48
2023-04-15T21:50:39.273Z,48.57
2023-04-15T21:53:08.041Z,48.45
2023-04-15T21:55:35.029Z,48.81
2023-04-15T21:58:01.703Z,48.83
2023-04-15T22:00:28.382Z,48.98
2023-04-15T22:02:55.357Z,48.44
2023-04-15T22:05:22.077Z,48.45
2023-04-15T22:07:48.787Z,49.10
2023-04-15T22:10:15.464Z,49.03
2023-04-15T22:12:42.135Z,49.26
2023-04-15T22:15:09.142Z,49.52
2023-04-15T22:17:35.935Z,49.02
2023-04-15T22:20:03.192Z,49.53
2023-04-15T22:22:44.007Z,49.14
2023-04-15T22:25:12.326Z,49.27
2023-04-15T22:27:38.940Z,49.41
2023-04-15T22:30:06.465Z,49.57
2023-04-15T22:32:33.177Z,49.76
2023-04-15T22:35:00.159Z,49.81
2023-04-15T22:37:30.449Z,49.72
2023-04-15T22:39:57.561Z,50.25
2023-04-15T22:42:24.376Z,49.93
2023-04-15T22:44:51.951Z,50.48
2023-04-15T22:47:19.257Z,50.53
2023-04-15T22:49:46.068Z,50.62
2023-04-15T22:52:23.308Z,50.38
2023-04-15T22:54:56.436Z,50.80
2023-04-15T22:57:23.049Z,50.81
2023-04-15T22:59:49.701Z,50.74
2023-04-15T23:02:16.500Z,51.01
2023-04-15T23:04:43.337Z,50.93
2023-04-15T23:07:10.045Z,51.16
2023-04-15T23:09:37.204Z,50.88
2023-04-15T23:12:03.949Z,51.38
2023-04-15T23:14:31.205Z,51.61
2023-04-15T23:16:58.560Z,51.50
2023-04-15T23:19:25.344Z,51.65
2023-04-15T23:21:52.734Z,51.61
2023-04-15T23:24:19.363Z,51.79
2023-04-15T23:26:45.976Z,51.89
2023-04-15T23:29:12.696Z,52.02
2023-04-15T23:31:41.609Z,52.11
2023-04-15T23:34:08.349Z,52.27
2023-04-15T23:36:35.005Z,52.24
2023-04-15T23:39:01.661Z,52.50
2023-04-15T23:41:28.256Z,52.42
2023-04-15T23:43:54.900Z,52.35
2023-04-15T23:46:21.589Z,52.47
2023-04-15T23:48:49.120Z,52.88
2023-04-15T23:51:16.043Z,52.92
2023-04-15T23:53:42.674Z,52.97
2023-04-15T23:56:09.311Z,52.90
2023-04-15T23:58:35.958Z,53.01
